Terminal Aerodrome Forecast
Issued by NWS Charleston, WV

Current Version | Previous Version | Graphics & Text | Print | Product List | Glossary On
Versions: 1 2 3 4 5 6 7 8 9 10 11 12 13 14 15 16 17 18 19 20 21 22 23 24 25
000
FTUS41 KRLX 161400 AAB
TAFCRW
TAF AMD
KCRW 161449Z 1615/1712 20009KT P6SM BKN040
     FM161600 22010G15KT 6SM -SHRA OVC027
      TEMPO 1616/1618 3SM SHRA
     FM161800 25012G24KT P6SM OVC028
     FM162300 25011G16KT 6SM -DZ BR OVC014
     FM170900 26009KT 6SM BR OVC008=

USA.gov is the U.S. government's official web portal to all federal, state and local government web resources and services.